sensor_id;sensor_type;location;lat;lon;timestamp;pressure;altitude;pressure_sealevel;temperature;humidity
2192;BME280;1102;49.718;11.902;2023-02-13T00:01:09;98211.72;;;-0.16;100.00
2192;BME280;1102;49.718;11.902;2023-02-13T00:03:35;98166.50;;;-0.40;100.00
2192;BME280;1102;49.718;11.902;2023-02-13T00:06:02;98166.09;;;-0.37;100.00
2192;BME280;1102;49.718;11.902;2023-02-13T00:08:29;98136.41;;;-0.54;100.00
2192;BME280;1102;49.718;11.902;2023-02-13T00:10:56;98198.91;;;-0.11;100.00
2192;BME280;1102;49.718;11.902;2023-02-13T00:13:23;98152.59;;;-0.52;100.00
2192;BME280;1102;49.718;11.902;2023-02-13T00:16:01;98203.78;;;-0.21;100.00
2192;BME280;1102;49.718;11.902;2023-02-13T00:18:29;98151.03;;;-0.53;100.00
2192;BME280;1102;49.718;11.902;2023-02-13T00:20:59;98202.19;;;-0.29;100.00
2192;BME280;1102;49.718;11.902;2023-02-13T00:23:28;98167.56;;;-0.48;100.00
2192;BME280;1102;49.718;11.902;2023-02-13T00:25:55;98164.28;;;-0.68;100.00
2192;BME280;1102;49.718;11.902;2023-02-13T00:28:22;98193.31;;;-0.46;100.00
2192;BME280;1102;49.718;11.902;2023-02-13T00:30:49;98161.50;;;-0.67;100.00
2192;BME280;1102;49.718;11.902;2023-02-13T00:33:16;98206.47;;;-0.41;100.00
2192;BME280;1102;49.718;11.902;2023-02-13T00:35:44;98179.31;;;-0.77;100.00
2192;BME280;1102;49.718;11.902;2023-02-13T00:38:10;98158.03;;;-0.92;100.00
2192;BME280;1102;49.718;11.902;2023-02-13T00:40:37;98214.00;;;-0.65;100.00
2192;BME280;1102;49.718;11.902;2023-02-13T00:43:05;98184.31;;;-0.82;100.00
2192;BME280;1102;49.718;11.902;2023-02-13T00:45:34;98191.13;;;-0.87;100.00
2192;BME280;1102;49.718;11.902;2023-02-13T00:48:01;98184.19;;;-1.00;100.00
2192;BME280;1102;49.718;11.902;2023-02-13T00:50:27;98193.78;;;-1.01;100.00
2192;BME280;1102;49.718;11.902;2023-02-13T00:52:54;98207.88;;;-0.83;100.00
2192;BME280;1102;49.718;11.902;2023-02-13T00:55:21;98175.25;;;-1.11;100.00
2192;BME280;1102;49.718;11.902;2023-02-13T00:57:47;98213.34;;;-0.98;100.00
2192;BME280;1102;49.718;11.902;2023-02-13T01:00:15;98208.53;;;-0.88;100.00
2192;BME280;1102;49.718;11.902;2023-02-13T01:02:41;98166.66;;;-1.05;100.00
2192;BME280;1102;49.718;11.902;2023-02-13T01:05:09;98183.53;;;-0.82;100.00
2192;BME280;1102;49.718;11.902;2023-02-13T01:07:36;98208.78;;;-0.58;100.00
2192;BME280;1102;49.718;11.902;2023-02-13T01:10:04;98219.53;;;-0.54;100.00
2192;BME280;1102;49.718;11.902;2023-02-13T01:12:31;98199.84;;;-0.69;100.00
2192;BME280;1102;49.718;11.902;2023-02-13T01:14:58;98186.69;;;-0.80;100.00
2192;BME280;1102;49.718;11.902;2023-02-13T01:17:25;98225.56;;;-0.61;100.00
2192;BME280;1102;49.718;11.902;2023-02-13T01:19:54;98201.91;;;-0.84;100.00
2192;BME280;1102;49.718;11.902;2023-02-13T01:22:21;98178.22;;;-1.01;100.00
2192;BME280;1102;49.718;11.902;2023-02-13T01:24:48;98225.16;;;-0.57;100.00
2192;BME280;1102;49.718;11.902;2023-02-13T01:27:14;98212.84;;;-0.75;100.00
2192;BME280;1102;49.718;11.902;2023-02-13T01:29:43;98201.47;;;-0.81;100.00
2192;BME280;1102;49.718;11.902;2023-02-13T01:32:10;98185.78;;;-0.99;100.00
2192;BME280;1102;49.718;11.902;2023-02-13T01:34:36;98199.78;;;-1.00;100.00
2192;BME280;1102;49.718;11.902;2023-02-13T01:37:03;98204.13;;;-0.94;100.00
2192;BME280;1102;49.718;11.902;2023-02-13T01:39:30;98217.47;;;-0.84;100.00
2192;BME280;1102;49.718;11.902;2023-02-13T01:41:57;98142.00;;;-1.34;100.00
2192;BME280;1102;49.718;11.902;2023-02-13T01:44:44;98220.13;;;-0.97;100.00
2192;BME280;1102;49.718;11.902;2023-02-13T01:47:19;98182.66;;;-1.14;100.00
2192;BME280;1102;49.718;11.902;2023-02-13T01:49:46;98175.47;;;-1.12;100.00
2192;BME280;1102;49.718;11.902;2023-02-13T01:52:15;98173.44;;;-1.10;100.00
2192;BME280;1102;49.718;11.902;2023-02-13T01:54:43;98188.06;;;-1.23;100.00
2192;BME280;1102;49.718;11.902;2023-02-13T01:57:17;98192.66;;;-1.25;100.00
2192;BME280;1102;49.718;11.902;2023-02-13T01:59:55;98192.25;;;-1.15;100.00
2192;BME280;1102;49.718;11.902;2023-02-13T02:02:26;98211.59;;;-1.11;100.00
2192;BME280;1102;49.718;11.902;2023-02-13T02:04:58;98182.91;;;-1.29;100.00
2192;BME280;1102;49.718;11.902;2023-02-13T02:07:28;98210.16;;;-1.00;100.00
2192;BME280;1102;49.718;11.902;2023-02-13T02:10:05;98171.44;;;-1.08;100.00
2192;BME280;1102;49.718;11.902;2023-02-13T02:12:57;98198.31;;;-0.83;100.00
2192;BME280;1102;49.718;11.902;2023-02-13T02:15:27;98185.59;;;-0.98;100.00
2192;BME280;1102;49.718;11.902;2023-02-13T02:17:54;98199.34;;;-0.91;100.00
2192;BME280;1102;49.718;11.902;2023-02-13T02:42:27;98208.22;;;-1.25;100.00
2192;BME280;1102;49.718;11.902;2023-02-13T02:45:24;98215.81;;;-1.23;100.00
2192;BME280;1102;49.718;11.902;2023-02-13T02:48:06;98217.44;;;-1.29;100.00
2192;BME280;1102;49.718;11.902;2023-02-13T02:53:52;98210.44;;;-1.35;100.00
2192;BME280;1102;49.718;11.902;2023-02-13T02:56:33;98208.25;;;-1.38;100.00
2192;BME280;1102;49.718;11.902;2023-02-13T02:59:06;98205.06;;;-1.40;100.00
2192;BME280;1102;49.718;11.902;2023-02-13T03:01:54;98177.41;;;-1.59;100.00
2192;BME280;1102;49.718;11.902;2023-02-13T03:04:44;98201.69;;;-1.47;100.00
2192;BME280;1102;49.718;11.902;2023-02-13T03:07:30;98164.63;;;-1.67;100.00
2192;BME280;1102;49.718;11.902;2023-02-13T03:10:06;98205.13;;;-1.60;100.00
2192;BME280;1102;49.718;11.902;2023-02-13T03:12:58;98203.91;;;-1.64;100.00
2192;BME280;1102;49.718;11.902;2023-02-13T03:16:02;98206.50;;;-1.64;100.00
2192;BME280;1102;49.718;11.902;2023-02-13T03:18:54;98158.66;;;-1.88;100.00
2192;BME280;1102;49.718;11.902;2023-02-13T03:21:54;98211.91;;;-1.65;100.00
2192;BME280;1102;49.718;11.902;2023-02-13T03:31:02;98217.50;;;-1.82;100.00
2192;BME280;1102;49.718;11.902;2023-02-13T03:33:41;98200.94;;;-2.07;100.00
2192;BME280;1102;49.718;11.902;2023-02-13T03:36:22;98213.50;;;-2.11;100.00
2192;BME280;1102;49.718;11.902;2023-02-13T03:39:20;98188.97;;;-2.21;100.00
2192;BME280;1102;49.718;11.902;2023-02-13T03:44:33;98187.53;;;-2.50;100.00
2192;BME280;1102;49.718;11.902;2023-02-13T03:47:05;98117.59;;;-2.77;100.00
2192;BME280;1102;49.718;11.902;2023-02-13T03:49:38;98184.16;;;-2.51;100.00
2192;BME280;1102;49.718;11.902;2023-02-13T03:52:34;98170.97;;;-2.56;100.00
2192;BME280;1102;49.718;11.902;2023-02-13T03:55:12;98171.41;;;-2.52;100.00
2192;BME280;1102;49.718;11.902;2023-02-13T03:58:03;98205.91;;;-2.39;100.00
2192;BME280;1102;49.718;11.902;2023-02-13T04:00:52;98155.84;;;-2.65;100.00
2192;BME280;1102;49.718;11.902;2023-02-13T04:03:27;98197.53;;;-2.27;100.00
2192;BME280;1102;49.718;11.902;2023-02-13T04:06:20;98197.34;;;-2.39;100.00
2192;BME280;1102;49.718;11.902;2023-02-13T04:08:50;98204.28;;;-2.46;100.00
2192;BME280;1102;49.718;11.902;2023-02-13T04:11:22;98167.34;;;-2.81;100.00
2192;BME280;1102;49.718;11.902;2023-02-13T04:13:54;98204.06;;;-2.51;100.00
2192;BME280;1102;49.718;11.902;2023-02-13T04:16:29;98201.47;;;-2.58;100.00
2192;BME280;1102;49.718;11.902;2023-02-13T04:18:59;98185.09;;;-2.72;100.00
2192;BME280;1102;49.718;11.902;2023-02-13T04:21:26;98202.06;;;-2.62;100.00
2192;BME280;1102;49.718;11.902;2023-02-13T04:23:53;98219.94;;;-2.74;100.00
2192;BME280;1102;49.718;11.902;2023-02-13T04:26:22;98203.44;;;-2.66;100.00
2192;BME280;1102;49.718;11.902;2023-02-13T04:28:48;98207.59;;;-2.72;100.00
2192;BME280;1102;49.718;11.902;2023-02-13T04:31:15;98199.66;;;-2.57;100.00
2192;BME280;1102;49.718;11.902;2023-02-13T04:33:42;98157.13;;;-3.03;100.00
2192;BME280;1102;49.718;11.902;2023-02-13T04:36:09;98117.50;;;-3.10;100.00
2192;BME280;1102;49.718;11.902;2023-02-13T04:38:35;98157.03;;;-2.75;100.00
2192;BME280;1102;49.718;11.902;2023-02-13T04:41:05;98156.41;;;-2.77;100.00
2192;BME280;1102;49.718;11.902;2023-02-13T04:43:32;98184.53;;;-2.67;100.00
2192;BME280;1102;49.718;11.902;2023-02-13T04:45:58;98164.97;;;-2.70;100.00
2192;BME280;1102;49.718;11.902;2023-02-13T04:48:25;98190.91;;;-2.63;100.00
2192;BME280;1102;49.718;11.902;2023-02-13T04:50:52;98205.06;;;-2.52;100.00
2192;BME280;1102;49.718;11.902;2023-02-13T04:53:19;98164.59;;;-2.80;100.00
2192;BME280;1102;49.718;11.902;2023-02-13T04:55:46;98186.13;;;-2.66;100.00
2192;BME280;1102;49.718;11.902;2023-02-13T04:58:13;98183.94;;;-2.56;100.00
2192;BME280;1102;49.718;11.902;2023-02-13T05:00:40;98170.78;;;-2.61;100.00
2192;BME280;1102;49.718;11.902;2023-02-13T05:03:08;98201.50;;;-2.38;100.00
2192;BME280;1102;49.718;11.902;2023-02-13T05:05:36;98202.88;;;-2.42;100.00
2192;BME280;1102;49.718;11.902;2023-02-13T05:08:03;98184.16;;;-2.51;100.00
2192;BME280;1102;49.718;11.902;2023-02-13T05:10:30;98166.22;;;-2.52;100.00
2192;BME280;1102;49.718;11.902;2023-02-13T05:12:57;98177.75;;;-2.55;100.00
2192;BME280;1102;49.718;11.902;2023-02-13T05:15:24;98164.59;;;-2.73;100.00
2192;BME280;1102;49.718;11.902;2023-02-13T05:17:51;98165.78;;;-2.69;100.00
2192;BME280;1102;49.718;11.902;2023-02-13T05:20:17;98185.38;;;-2.40;100.00
2192;BME280;1102;49.718;11.902;2023-02-13T05:22:52;98206.72;;;-2.18;100.00
2192;BME280;1102;49.718;11.902;2023-02-13T05:25:39;98211.09;;;-2.05;100.00
2192;BME280;1102;49.718;11.902;2023-02-13T05:28:07;98203.31;;;-2.05;100.00
2192;BME280;1102;49.718;11.902;2023-02-13T05:30:54;98195.75;;;-2.07;100.00
2192;BME280;1102;49.718;11.902;2023-02-13T05:33:21;98219.09;;;-2.07;100.00
2192;BME280;1102;49.718;11.902;2023-02-13T05:35:47;98202.94;;;-2.09;100.00
2192;BME280;1102;49.718;11.902;2023-02-13T05:38:14;98192.75;;;-2.30;100.00
2192;BME280;1102;49.718;11.902;2023-02-13T05:40:41;98177.59;;;-2.33;100.00
2192;BME280;1102;49.718;11.902;2023-02-13T05:43:07;98225.06;;;-2.00;100.00
2192;BME280;1102;49.718;11.902;2023-02-13T05:45:34;98225.69;;;-1.98;100.00
2192;BME280;1102;49.718;11.902;2023-02-13T05:48:00;98215.09;;;-2.03;100.00
2192;BME280;1102;49.718;11.902;2023-02-13T05:50:27;98226.69;;;-1.86;100.00
2192;BME280;1102;49.718;11.902;2023-02-13T05:52:54;98219.28;;;-1.89;100.00
2192;BME280;1102;49.718;11.902;2023-02-13T05:55:21;98195.94;;;-2.02;100.00
2192;BME280;1102;49.718;11.902;2023-02-13T05:57:47;98206.53;;;-1.97;100.00
2192;BME280;1102;49.718;11.902;2023-02-13T06:00:14;98220.09;;;-1.95;100.00
2192;BME280;1102;49.718;11.902;2023-02-13T06:02:41;98219.91;;;-2.00;100.00
2192;BME280;1102;49.718;11.902;2023-02-13T06:05:08;98193.97;;;-2.13;100.00
2192;BME280;1102;49.718;11.902;2023-02-13T06:07:35;98217.09;;;-2.05;100.00
2192;BME280;1102;49.718;11.902;2023-02-13T06:10:01;98206.72;;;-2.05;100.00
2192;BME280;1102;49.718;11.902;2023-02-13T06:12:28;98222.28;;;-1.98;100.00
2192;BME280;1102;49.718;11.902;2023-02-13T06:14:55;98209.09;;;-2.17;100.00
2192;BME280;1102;49.718;11.902;2023-02-13T06:17:21;98211.13;;;-2.12;100.00
2192;BME280;1102;49.718;11.902;2023-02-13T06:19:48;98249.78;;;-1.91;100.00
2192;BME280;1102;49.718;11.902;2023-02-13T06:22:15;98238.44;;;-1.96;100.00
2192;BME280;1102;49.718;11.902;2023-02-13T06:24:41;98226.25;;;-2.09;100.00
2192;BME280;1102;49.718;11.902;2023-02-13T06:27:08;98251.00;;;-1.93;100.00
2192;BME280;1102;49.718;11.902;2023-02-13T06:29:34;98230.25;;;-2.13;100.00
2192;BME280;1102;49.718;11.902;2023-02-13T06:32:01;98269.16;;;-1.87;100.00
2192;BME280;1102;49.718;11.902;2023-02-13T06:34:28;98245.38;;;-2.17;100.00
2192;BME280;1102;49.718;11.902;2023-02-13T06:36:55;98225.44;;;-2.23;100.00
2192;BME280;1102;49.718;11.902;2023-02-13T06:39:21;98267.94;;;-1.91;100.00
2192;BME280;1102;49.718;11.902;2023-02-13T06:41:48;98260.53;;;-2.00;100.00
2192;BME280;1102;49.718;11.902;2023-02-13T06:44:14;98221.47;;;-2.12;100.00
2192;BME280;1102;49.718;11.902;2023-02-13T06:46:41;98275.50;;;-1.76;100.00
2192;BME280;1102;49.718;11.902;2023-02-13T06:49:08;98274.34;;;-1.60;100.00
2192;BME280;1102;49.718;11.902;2023-02-13T06:51:35;98220.50;;;-1.98;100.00
2192;BME280;1102;49.718;11.902;2023-02-13T06:54:02;98253.38;;;-1.79;100.00
2192;BME280;1102;49.718;11.902;2023-02-13T06:56:28;98272.91;;;-1.76;100.00
2192;BME280;1102;49.718;11.902;2023-02-13T06:58:55;98224.28;;;-2.14;100.00
2192;BME280;1102;49.718;11.902;2023-02-13T07:01:22;98261.75;;;-1.90;100.00
2192;BME280;1102;49.718;11.902;2023-02-13T07:03:48;98275.72;;;-1.64;100.00
2192;BME280;1102;49.718;11.902;2023-02-13T07:06:19;98257.56;;;-1.51;100.00
2192;BME280;1102;49.718;11.902;2023-02-13T07:08:46;98261.16;;;-1.52;100.00
2192;BME280;1102;49.718;11.902;2023-02-13T07:11:21;98298.25;;;-1.25;100.00
2192;BME280;1102;49.718;11.902;2023-02-13T07:13:48;98269.75;;;-1.52;100.00
2192;BME280;1102;49.718;11.902;2023-02-13T07:16:15;98294.88;;;-1.39;100.00
2192;BME280;1102;49.718;11.902;2023-02-13T07:18:42;98242.22;;;-1.79;100.00
2192;BME280;1102;49.718;11.902;2023-02-13T07:21:09;98294.09;;;-1.59;100.00
2192;BME280;1102;49.718;11.902;2023-02-13T07:23:35;98301.66;;;-1.51;100.00
2192;BME280;1102;49.718;11.902;2023-02-13T07:26:02;98297.84;;;-1.49;100.00
2192;BME280;1102;49.718;11.902;2023-02-13T07:28:29;98293.47;;;-1.61;100.00
2192;BME280;1102;49.718;11.902;2023-02-13T07:30:56;98298.28;;;-1.58;100.00
2192;BME280;1102;49.718;11.902;2023-02-13T07:33:23;98296.47;;;-1.58;100.00
2192;BME280;1102;49.718;11.902;2023-02-13T07:35:50;98294.88;;;-1.32;100.00
2192;BME280;1102;49.718;11.902;2023-02-13T07:38:17;98254.19;;;-1.65;100.00
2192;BME280;1102;49.718;11.902;2023-02-13T07:40:44;98297.06;;;-1.42;100.00
2192;BME280;1102;49.718;11.902;2023-02-13T07:43:12;98270.75;;;-1.66;100.00
2192;BME280;1102;49.718;11.902;2023-02-13T07:45:38;98272.13;;;-1.63;100.00
2192;BME280;1102;49.718;11.902;2023-02-13T07:48:05;98281.72;;;-1.57;100.00
2192;BME280;1102;49.718;11.902;2023-02-13T07:50:32;98248.00;;;-1.84;100.00
2192;BME280;1102;49.718;11.902;2023-02-13T07:53:00;98258.19;;;-1.69;100.00
2192;BME280;1102;49.718;11.902;2023-02-13T07:55:27;98300.47;;;-1.42;100.00
2192;BME280;1102;49.718;11.902;2023-02-13T07:57:55;98237.81;;;-1.92;100.00
2192;BME280;1102;49.718;11.902;2023-02-13T08:00:22;98296.47;;;-1.51;100.00
2192;BME280;1102;49.718;11.902;2023-02-13T08:02:48;98290.88;;;-1.48;100.00
2192;BME280;1102;49.718;11.902;2023-02-13T08:05:15;98247.22;;;-1.71;100.00
2192;BME280;1102;49.718;11.902;2023-02-13T08:07:42;98263.97;;;-1.73;100.00
2192;BME280;1102;49.718;11.902;2023-02-13T08:10:11;98305.84;;;-1.43;100.00
2192;BME280;1102;49.718;11.902;2023-02-13T08:12:56;98259.56;;;-1.66;100.00
2192;BME280;1102;49.718;11.902;2023-02-13T08:15:23;98287.28;;;-1.34;100.00
2192;BME280;1102;49.718;11.902;2023-02-13T08:17:50;98295.06;;;-1.34;100.00
2192;BME280;1102;49.718;11.902;2023-02-13T08:20:16;98291.47;;;-1.26;100.00
2192;BME280;1102;49.718;11.902;2023-02-13T08:22:43;98252.59;;;-1.46;100.00
2192;BME280;1102;49.718;11.902;2023-02-13T08:25:10;98254.97;;;-1.38;100.00
2192;BME280;1102;49.718;11.902;2023-02-13T08:27:37;98307.03;;;-1.06;100.00
2192;BME280;1102;49.718;11.902;2023-02-13T08:30:05;98276.69;;;-1.06;100.00
2192;BME280;1102;49.718;11.902;2023-02-13T08:32:32;98274.47;;;-1.02;100.00
2192;BME280;1102;49.718;11.902;2023-02-13T08:35:17;98310.75;;;-0.76;100.00
2192;BME280;1102;49.718;11.902;2023-02-13T08:37:44;98272.22;;;-0.85;100.00
2192;BME280;1102;49.718;11.902;2023-02-13T08:40:13;98281.19;;;-0.75;100.00
2192;BME280;1102;49.718;11.902;2023-02-13T08:42:39;98282.88;;;-0.55;100.00
2192;BME280;1102;49.718;11.902;2023-02-13T08:45:06;98293.66;;;-0.45;100.00
2192;BME280;1102;49.718;11.902;2023-02-13T08:47:34;98276.88;;;-0.49;100.00
2192;BME280;1102;49.718;11.902;2023-02-13T08:50:01;98289.22;;;-0.38;100.00
2192;BME280;1102;49.718;11.902;2023-02-13T08:52:27;98305.00;;;-0.33;100.00
2192;BME280;1102;49.718;11.902;2023-02-13T08:54:54;98313.88;;;-0.16;100.00
2192;BME280;1102;49.718;11.902;2023-02-13T08:57:21;98313.00;;;0.04;100.00
2192;BME280;1102;49.718;11.902;2023-02-13T08:59:48;98311.19;;;0.04;100.00
2192;BME280;1102;49.718;11.902;2023-02-13T09:02:14;98315.25;;;0.25;100.00
2192;BME280;1102;49.718;11.902;2023-02-13T09:04:41;98302.19;;;0.07;100.00
2192;BME280;1102;49.718;11.902;2023-02-13T09:07:08;98280.41;;;0.01;100.00
2192;BME280;1102;49.718;11.902;2023-02-13T09:09:34;98293.03;;;-0.03;100.00
2192;BME280;1102;49.718;11.902;2023-02-13T09:12:01;98262.69;;;-0.15;100.00
2192;BME280;1102;49.718;11.902;2023-02-13T09:14:27;98278.63;;;0.02;100.00
2192;BME280;1102;49.718;11.902;2023-02-13T09:16:54;98279.63;;;0.01;100.00
2192;BME280;1102;49.718;11.902;2023-02-13T09:19:21;98297.31;;;0.17;100.00
2192;BME280;1102;49.718;11.902;2023-02-13T09:21:48;98262.09;;;-0.11;100.00
2192;BME280;1102;49.718;11.902;2023-02-13T09:24:14;98297.41;;;0.04;100.00
2192;BME280;1102;49.718;11.902;2023-02-13T09:26:41;98278.31;;;0.16;100.00
2192;BME280;1102;49.718;11.902;2023-02-13T09:29:07;98308.44;;;0.55;100.00
2192;BME280;1102;49.718;11.902;2023-02-13T09:31:34;98308.84;;;0.52;100.00
2192;BME280;1102;49.718;11.902;2023-02-13T09:34:01;98295.75;;;0.41;100.00
2192;BME280;1102;49.718;11.902;2023-02-13T09:36:27;98257.13;;;0.13;100.00
2192;BME280;1102;49.718;11.902;2023-02-13T09:38:56;98293.56;;;0.38;100.00
2192;BME280;1102;49.718;11.902;2023-02-13T09:41:27;98310.06;;;0.50;100.00
2192;BME280;1102;49.718;11.902;2023-02-13T09:43:57;98316.28;;;0.74;100.00
2192;BME280;1102;49.718;11.902;2023-02-13T09:46:32;98316.28;;;0.74;100.00
2192;BME280;1102;49.718;11.902;2023-02-13T09:49:13;98277.31;;;0.42;100.00
2192;BME280;1102;49.718;11.902;2023-02-13T09:51:45;98315.06;;;0.76;100.00
2192;BME280;1102;49.718;11.902;2023-02-13T09:54:19;98282.50;;;1.10;100.00
2192;BME280;1102;49.718;11.902;2023-02-13T09:59:30;98309.63;;;1.39;100.00
2192;BME280;1102;49.718;11.902;2023-02-13T10:02:07;98297.97;;;1.42;100.00
2192;BME280;1102;49.718;11.902;2023-02-13T10:05:41;98315.84;;;1.57;100.00
2192;BME280;1102;49.718;11.902;2023-02-13T10:07:47;98314.56;;;1.47;100.00
2192;BME280;1102;49.718;11.902;2023-02-13T10:18:16;98322.38;;;1.96;100.00
2192;BME280;1102;49.718;11.902;2023-02-13T10:20:55;98304.97;;;1.78;100.00
2192;BME280;1102;49.718;11.902;2023-02-13T10:23:26;98295.78;;;1.75;100.00
2192;BME280;1102;49.718;11.902;2023-02-13T10:26:00;98321.19;;;2.10;100.00
2192;BME280;1102;49.718;11.902;2023-02-13T10:28:37;98325.81;;;2.50;100.00
2192;BME280;1102;49.718;11.902;2023-02-13T10:31:11;98304.84;;;2.68;100.00
2192;BME280;1102;49.718;11.902;2023-02-13T10:33:49;98328.50;;;3.08;100.00
2192;BME280;1102;49.718;11.902;2023-02-13T10:36:26;98338.81;;;3.38;100.00
2192;BME280;1102;49.718;11.902;2023-02-13T10:41:49;98333.34;;;3.05;100.00
2192;BME280;1102;49.718;11.902;2023-02-13T10:50:15;98344.63;;;4.09;100.00
2192;BME280;1102;49.718;11.902;2023-02-13T10:55:40;98343.56;;;4.38;100.00
2192;BME280;1102;49.718;11.902;2023-02-13T10:58:18;98303.66;;;4.31;100.00
2192;BME280;1102;49.718;11.902;2023-02-13T11:00:47;98352.03;;;4.57;100.00
2192;BME280;1102;49.718;11.902;2023-02-13T11:03:24;98351.31;;;4.17;100.00
2192;BME280;1102;49.718;11.902;2023-02-13T11:05:53;98324.50;;;4.26;100.00
2192;BME280;1102;49.718;11.902;2023-02-13T11:08:24;98359.47;;;4.65;100.00
2192;BME280;1102;49.718;11.902;2023-02-13T11:10:52;98314.91;;;4.15;100.00
2192;BME280;1102;49.718;11.902;2023-02-13T11:13:21;98328.81;;;4.49;100.00
2192;BME280;1102;49.718;11.902;2023-02-13T11:16:07;98327.47;;;4.80;100.00
2192;BME280;1102;49.718;11.902;2023-02-13T11:18:39;98318.28;;;4.78;100.00
2192;BME280;1102;49.718;11.902;2023-02-13T11:21:10;98328.59;;;5.01;100.00
2192;BME280;1102;49.718;11.902;2023-02-13T11:23:43;98295.28;;;5.01;100.00
2192;BME280;1102;49.718;11.902;2023-02-13T11:26:14;98334.63;;;5.40;100.00
2192;BME280;1102;49.718;11.902;2023-02-13T11:28:55;98324.78;;;4.58;100.00
2192;BME280;1102;49.718;11.902;2023-02-13T11:31:33;98337.28;;;4.68;100.00
2192;BME280;1102;49.718;11.902;2023-02-13T11:34:23;98337.75;;;5.20;100.00
2192;BME280;1102;49.718;11.902;2023-02-13T11:36:52;98335.47;;;5.46;100.00
2192;BME280;1102;49.718;11.902;2023-02-13T11:39:25;98293.41;;;5.36;100.00
2192;BME280;1102;49.718;11.902;2023-02-13T11:41:52;98300.91;;;5.49;100.00
2192;BME280;1102;49.718;11.902;2023-02-13T11:44:29;98310.91;;;5.52;100.00
2192;BME280;1102;49.718;11.902;2023-02-13T11:47:00;98319.25;;;5.71;100.00
2192;BME280;1102;49.718;11.902;2023-02-13T11:49:30;98318.72;;;5.08;100.00
2192;BME280;1102;49.718;11.902;2023-02-13T11:52:01;98288.31;;;4.90;100.00
2192;BME280;1102;49.718;11.902;2023-02-13T11:54:32;98334.50;;;5.30;100.00
2192;BME280;1102;49.718;11.902;2023-02-13T11:59:41;98332.19;;;5.77;100.00
2192;BME280;1102;49.718;11.902;2023-02-13T12:02:16;98332.66;;;5.74;100.00
2192;BME280;1102;49.718;11.902;2023-02-13T12:04:44;98293.00;;;5.71;100.00
2192;BME280;1102;49.718;11.902;2023-02-13T12:07:29;98324.63;;;6.03;100.00
2192;BME280;1102;49.718;11.902;2023-02-13T12:10:06;98293.16;;;5.86;100.00
2192;BME280;1102;49.718;11.902;2023-02-13T12:12:37;98274.13;;;5.96;100.00
2192;BME280;1102;49.718;11.902;2023-02-13T12:15:21;98317.56;;;6.30;100.00
2192;BME280;1102;49.718;11.902;2023-02-13T12:23:32;98305.25;;;6.68;100.00
2192;BME280;1102;49.718;11.902;2023-02-13T12:29:03;98303.41;;;6.68;100.00
2192;BME280;1102;49.718;11.902;2023-02-13T12:43:14;98282.50;;;6.51;100.00
2192;BME280;1102;49.718;11.902;2023-02-13T12:46:06;98289.56;;;6.46;100.00
2192;BME280;1102;49.718;11.902;2023-02-13T12:48:50;98258.72;;;6.31;100.00
2192;BME280;1102;49.718;11.902;2023-02-13T12:53:54;98298.34;;;6.62;100.00
2192;BME280;1102;49.718;11.902;2023-02-13T12:59:18;98286.59;;;6.37;100.00
2192;BME280;1102;49.718;11.902;2023-02-13T13:05:01;98279.09;;;6.51;100.00
2192;BME280;1102;49.718;11.902;2023-02-13T13:11:07;98272.25;;;6.87;100.00
2192;BME280;1102;49.718;11.902;2023-02-13T13:14:00;98276.03;;;7.06;100.00
2192;BME280;1102;49.718;11.902;2023-02-13T13:16:45;98277.13;;;6.68;100.00
2192;BME280;1102;49.718;11.902;2023-02-13T13:19:37;98249.38;;;6.88;100.00
2192;BME280;1102;49.718;11.902;2023-02-13T13:27:19;98245.03;;;6.66;100.00
2192;BME280;1102;49.718;11.902;2023-02-13T13:32:20;98226.44;;;6.36;100.00
2192;BME280;1102;49.718;11.902;2023-02-13T13:34:47;98270.59;;;6.76;100.00
2192;BME280;1102;49.718;11.902;2023-02-13T13:40:25;98275.25;;;7.74;100.00
2192;BME280;1102;49.718;11.902;2023-02-13T13:42:55;98275.94;;;7.38;100.00
2192;BME280;1102;49.718;11.902;2023-02-13T13:45:44;98257.31;;;6.56;100.00
2192;BME280;1102;49.718;11.902;2023-02-13T13:50:50;98235.25;;;6.57;100.00
2192;BME280;1102;49.718;11.902;2023-02-13T13:53:19;98239.22;;;6.64;100.00
2192;BME280;1102;49.718;11.902;2023-02-13T14:01:20;98263.25;;;7.25;100.00
2192;BME280;1102;49.718;11.902;2023-02-13T14:03:51;98247.94;;;7.95;100.00
2192;BME280;1102;49.718;11.902;2023-02-13T14:09:06;98271.50;;;9.47;100.00
2192;BME280;1102;49.718;11.902;2023-02-13T14:11:38;98276.06;;;9.86;100.00
2192;BME280;1102;49.718;11.902;2023-02-13T14:16:58;98254.25;;;9.65;100.00
2192;BME280;1102;49.718;11.902;2023-02-13T14:19:37;98247.91;;;9.61;100.00
2192;BME280;1102;49.718;11.902;2023-02-13T14:27:26;98253.25;;;10.40;100.00
2192;BME280;1102;49.718;11.902;2023-02-13T14:29:55;98270.69;;;10.75;100.00
2192;BME280;1102;49.718;11.902;2023-02-13T14:32:30;98257.22;;;10.42;100.00
2192;BME280;1102;49.718;11.902;2023-02-13T14:35:01;98264.53;;;10.84;100.00
2192;BME280;1102;49.718;11.902;2023-02-13T14:37:35;98224.34;;;10.77;100.00
2192;BME280;1102;49.718;11.902;2023-02-13T14:42:36;98243.53;;;9.41;100.00
2192;BME280;1102;49.718;11.902;2023-02-13T14:45:12;98276.94;;;8.97;100.00
2192;BME280;1102;49.718;11.902;2023-02-13T14:47:53;98268.00;;;8.32;100.00
2192;BME280;1102;49.718;11.902;2023-02-13T14:50:44;98243.75;;;8.29;100.00
2192;BME280;1102;49.718;11.902;2023-02-13T14:53:19;98236.94;;;9.39;100.00
2192;BME280;1102;49.718;11.902;2023-02-13T14:55:52;98265.81;;;9.80;100.00
2192;BME280;1102;49.718;11.902;2023-02-13T14:58:28;98237.50;;;10.29;100.00
2192;BME280;1102;49.718;11.902;2023-02-13T15:00:58;98265.91;;;10.77;100.00
2192;BME280;1102;49.718;11.902;2023-02-13T15:06:13;98266.53;;;10.92;100.00
2192;BME280;1102;49.718;11.902;2023-02-13T15:08:48;98200.31;;;10.74;100.00
2192;BME280;1102;49.718;11.902;2023-02-13T15:17:02;98268.56;;;11.48;100.00
2192;BME280;1102;49.718;11.902;2023-02-13T15:19:34;98256.16;;;11.25;100.00
2192;BME280;1102;49.718;11.902;2023-02-13T15:22:04;98257.41;;;11.51;100.00
2192;BME280;1102;49.718;11.902;2023-02-13T15:24:37;98225.72;;;10.99;100.00
2192;BME280;1102;49.718;11.902;2023-02-13T15:27:26;98256.06;;;11.30;100.00
2192;BME280;1102;49.718;11.902;2023-02-13T15:29:56;98227.25;;;11.05;100.00
2192;BME280;1102;49.718;11.902;2023-02-13T15:32:30;98221.78;;;10.96;100.00
2192;BME280;1102;49.718;11.902;2023-02-13T15:34:57;98226.44;;;11.04;100.00
2192;BME280;1102;49.718;11.902;2023-02-13T15:37:27;98257.72;;;11.02;100.00